METAR Data
IDs: Format: Raw Decoded Include TAF

Data at: 0621 UTC 24 Jan 2019

METAR for:KLCK (Rickenbacker AFB, OH, US)
Text:KLCK 240615Z AUTO 33009KT 5SM -RA SCT010 BKN015 OVC020 01/00 A2968 RMK AO2 T00050001
Temperature: 0.5°C ( 33°F)
Dewpoint: 0.1°C ( 32°F) [RH = 97%]
Pressure (altimeter):29.68 inches Hg (1005.2 mb)
Winds:from the NNW (330 degrees) at 10 MPH (9 knots; 4.6 m/s)
Visibility: 5 sm ( 8 km)
Ceiling:1500 feet AGL
Clouds: scattered clouds at 1000 feet AGL, broken clouds at 1500 feet AGL, overcast cloud deck at 2000 feet AGL
Weather:-RA (light rain)
QC Flag:automated observation with no human augmentation